createdAt,value
2018-01-14T00:01:11.285Z,14.85
2018-01-14T00:03:39.594Z,15.35
2018-01-14T00:06:07.929Z,13.00
2018-01-14T00:08:36.256Z,15.85
2018-01-14T00:11:05.344Z,13.93
2018-01-14T00:13:33.624Z,16.23
2018-01-14T00:16:02.060Z,13.45
2018-01-14T00:18:30.540Z,15.50
2018-01-14T00:20:58.926Z,14.20
2018-01-14T00:23:27.294Z,14.80
2018-01-14T00:25:55.745Z,13.07
2018-01-14T00:28:24.213Z,15.25
2018-01-14T00:30:53.316Z,19.12
2018-01-14T00:33:21.657Z,23.55
2018-01-14T00:35:49.965Z,18.40
2018-01-14T00:38:18.727Z,15.63
2018-01-14T00:40:47.258Z,19.45
2018-01-14T00:43:15.596Z,16.12
2018-01-14T00:45:43.952Z,17.98
2018-01-14T00:48:12.494Z,17.95
2018-01-14T00:50:40.947Z,15.60
2018-01-14T00:53:09.305Z,15.98
2018-01-14T00:55:37.613Z,16.77
2018-01-14T00:58:06.683Z,17.90
2018-01-14T01:00:35.218Z,13.52
2018-01-14T01:03:03.533Z,18.17
2018-01-14T01:05:31.851Z,20.40
2018-01-14T01:08:00.205Z,16.40
2018-01-14T01:10:28.507Z,15.73
2018-01-14T01:12:57.595Z,18.48
2018-01-14T01:15:25.950Z,17.50
2018-01-14T01:17:54.250Z,15.93
2018-01-14T01:20:22.684Z,18.15
2018-01-14T01:22:51.312Z,15.45
2018-01-14T01:25:19.637Z,18.60
2018-01-14T01:27:48.005Z,24.35
2018-01-14T01:30:16.346Z,17.65
2018-01-14T01:32:44.667Z,18.10
2018-01-14T01:35:12.988Z,18.27
2018-01-14T01:37:41.339Z,17.65
2018-01-14T01:40:09.655Z,17.25
2018-01-14T01:42:37.990Z,18.58
2018-01-14T01:45:06.577Z,19.35
2018-01-14T01:47:34.914Z,17.02
2018-01-14T01:50:03.272Z,19.83
2018-01-14T01:52:31.630Z,17.90
2018-01-14T01:55:00.732Z,17.77
2018-01-14T01:57:29.041Z,14.32
2018-01-14T01:59:57.402Z,15.43
2018-01-14T02:02:25.735Z,15.13
2018-01-14T02:04:54.093Z,20.08
2018-01-14T02:07:22.795Z,15.50
2018-01-14T02:09:51.125Z,17.10
2018-01-14T02:12:19.432Z,22.73
2018-01-14T02:14:48.549Z,20.02
2018-01-14T02:17:16.859Z,15.70
2018-01-14T02:19:45.176Z,17.35
2018-01-14T02:22:14.635Z,18.48
2018-01-14T02:24:42.956Z,18.42
2018-01-14T02:27:12.039Z,19.62
2018-01-14T02:29:40.823Z,17.00
2018-01-14T02:32:09.161Z,18.42
2018-01-14T02:34:37.450Z,20.08
2018-01-14T02:37:05.799Z,18.23
2018-01-14T02:39:34.938Z,16.48
2018-01-14T02:42:03.241Z,18.30
2018-01-14T02:44:31.620Z,19.23
2018-01-14T02:46:59.920Z,22.17
2018-01-14T02:49:29.043Z,20.02
2018-01-14T02:51:58.093Z,19.58
2018-01-14T02:54:27.165Z,18.23
2018-01-14T02:56:55.468Z,19.85
2018-01-14T02:59:23.793Z,27.20
2018-01-14T03:01:52.120Z,20.85
2018-01-14T03:04:20.439Z,18.23
2018-01-14T03:06:48.772Z,19.95
2018-01-14T03:09:17.091Z,19.95
2018-01-14T03:11:45.426Z,18.77
2018-01-14T03:14:14.080Z,20.35
2018-01-14T03:16:42.372Z,21.40
2018-01-14T03:19:10.669Z,19.65
2018-01-14T03:21:39.088Z,22.17
2018-01-14T03:24:08.140Z,21.70
2018-01-14T03:26:36.459Z,22.90
2018-01-14T03:29:04.803Z,23.35
2018-01-14T03:31:33.162Z,21.58
2018-01-14T03:34:01.601Z,24.23
2018-01-14T03:36:30.096Z,20.90
2018-01-14T03:38:58.598Z,20.80
2018-01-14T03:41:26.986Z,25.80
2018-01-14T03:43:55.346Z,27.60
2018-01-14T03:46:23.681Z,23.12
2018-01-14T03:48:52.818Z,20.65
2018-01-14T03:51:21.142Z,24.92
2018-01-14T03:53:50.249Z,24.37
2018-01-14T03:56:19.506Z,25.48
2018-01-14T03:58:48.733Z,24.00
2018-01-14T04:01:17.029Z,25.37
2018-01-14T04:03:45.352Z,26.87
2018-01-14T04:06:13.740Z,25.65
2018-01-14T04:08:42.065Z,20.95
2018-01-14T04:11:11.126Z,22.15
2018-01-14T04:13:39.473Z,19.00
2018-01-14T04:16:07.788Z,25.15
2018-01-14T04:18:36.090Z,25.20
2018-01-14T04:21:04.960Z,24.08
2018-01-14T04:23:33.278Z,22.60
2018-01-14T04:26:01.565Z,24.17
2018-01-14T04:28:29.882Z,44.20
2018-01-14T04:30:58.186Z,19.98
2018-01-14T04:33:26.533Z,22.35
2018-01-14T04:35:54.897Z,21.10
2018-01-14T04:38:23.188Z,22.05
2018-01-14T04:40:51.481Z,24.37
2018-01-14T04:43:20.083Z,21.70
2018-01-14T04:45:48.399Z,24.50
2018-01-14T04:48:16.723Z,26.85
2018-01-14T04:50:45.061Z,22.55
2018-01-14T04:53:13.383Z,21.83
2018-01-14T04:55:41.716Z,20.83
2018-01-14T04:58:10.060Z,22.40
2018-01-14T05:00:39.165Z,17.92
2018-01-14T05:03:08.224Z,28.08
2018-01-14T05:05:36.872Z,24.20
2018-01-14T05:08:05.191Z,35.00
2018-01-14T05:10:33.500Z,23.27
2018-01-14T05:13:02.590Z,26.83
2018-01-14T05:15:31.690Z,25.08
2018-01-14T05:18:00.760Z,20.73
2018-01-14T05:20:29.388Z,20.42
2018-01-14T05:22:57.709Z,28.60
2018-01-14T05:25:26.375Z,27.58
2018-01-14T05:27:54.901Z,28.23
2018-01-14T05:30:23.226Z,28.25
2018-01-14T05:32:51.534Z,25.88
2018-01-14T05:35:19.919Z,24.90
2018-01-14T05:37:48.213Z,26.80
2018-01-14T05:40:16.534Z,28.55
2018-01-14T05:42:45.136Z,29.70
2018-01-14T05:45:13.480Z,30.25
2018-01-14T05:47:41.864Z,30.92
2018-01-14T05:50:10.550Z,26.85
2018-01-14T05:52:38.875Z,28.62
2018-01-14T05:55:07.195Z,31.58
2018-01-14T05:57:36.357Z,34.90
2018-01-14T06:00:04.670Z,29.83
2018-01-14T06:02:33.025Z,31.70
2018-01-14T06:05:01.380Z,35.50
2018-01-14T06:07:29.752Z,34.22
2018-01-14T06:09:58.182Z,34.45
2018-01-14T06:12:29.832Z,31.48
2018-01-14T06:14:58.232Z,35.15
2018-01-14T06:17:26.620Z,34.70
2018-01-14T06:19:54.968Z,28.65
2018-01-14T06:22:23.364Z,33.55
2018-01-14T06:24:52.460Z,34.95
2018-01-14T06:27:21.837Z,31.10
2018-01-14T06:29:50.315Z,28.60
2018-01-14T06:32:18.648Z,39.42
2018-01-14T06:34:47.272Z,32.47
2018-01-14T06:37:15.661Z,37.03
2018-01-14T06:39:43.996Z,34.05
2018-01-14T06:42:12.342Z,32.60
2018-01-14T06:44:40.657Z,32.97
2018-01-14T06:47:09.041Z,33.03
2018-01-14T06:49:37.431Z,37.85
2018-01-14T06:52:05.752Z,36.95
2018-01-14T06:54:34.837Z,35.15
2018-01-14T06:57:03.381Z,32.42
2018-01-14T06:59:31.680Z,33.90
2018-01-14T07:01:59.999Z,32.50
2018-01-14T07:04:28.335Z,32.13
2018-01-14T07:06:56.886Z,35.55
2018-01-14T07:09:25.198Z,37.15
2018-01-14T07:11:53.587Z,32.83
2018-01-14T07:14:21.904Z,39.40
2018-01-14T07:16:50.307Z,33.15
2018-01-14T07:19:19.672Z,36.13
2018-01-14T07:21:48.787Z,32.92
2018-01-14T07:24:17.081Z,33.90
2018-01-14T07:26:45.424Z,31.92
2018-01-14T07:29:14.519Z,34.72
2018-01-14T07:31:42.840Z,29.80
2018-01-14T07:34:11.183Z,31.60
2018-01-14T07:36:40.267Z,35.63
2018-01-14T07:39:08.591Z,33.85
2018-01-14T07:41:37.042Z,37.63
2018-01-14T07:44:06.131Z,32.95
2018-01-14T07:46:35.236Z,35.53
2018-01-14T07:49:03.581Z,28.05
2018-01-14T07:51:31.880Z,32.35
2018-01-14T07:54:00.189Z,33.25
2018-01-14T07:56:28.551Z,33.10
2018-01-14T07:58:56.876Z,36.70
2018-01-14T08:01:25.181Z,33.95
2018-01-14T08:03:53.863Z,31.40
2018-01-14T08:06:22.164Z,34.20
2018-01-14T08:08:51.229Z,29.75
2018-01-14T08:11:19.550Z,29.98
2018-01-14T08:13:47.868Z,31.67
2018-01-14T08:16:16.185Z,30.77
2018-01-14T08:18:44.541Z,35.42
2018-01-14T08:21:12.884Z,34.22
2018-01-14T08:23:41.215Z,34.97
2018-01-14T08:26:11.532Z,30.45
2018-01-14T08:28:40.621Z,32.17
2018-01-14T08:31:08.913Z,31.05
2018-01-14T08:33:38.036Z,28.05
2018-01-14T08:36:06.355Z,31.33
2018-01-14T08:38:34.664Z,28.98
2018-01-14T08:41:03.790Z,33.47
2018-01-14T08:43:32.099Z,29.37
2018-01-14T08:46:00.407Z,31.42
2018-01-14T08:48:29.078Z,28.92
2018-01-14T08:50:57.410Z,35.10
2018-01-14T08:53:25.724Z,29.42
2018-01-14T08:55:54.042Z,32.17
2018-01-14T08:58:23.140Z,32.72
2018-01-14T09:00:51.456Z,30.77
2018-01-14T09:03:19.776Z,33.05
2018-01-14T09:05:48.335Z,30.90
2018-01-14T09:08:16.645Z,26.35
2018-01-14T09:10:45.549Z,28.52
2018-01-14T09:13:13.940Z,38.35
2018-01-14T09:15:42.208Z,32.35
2018-01-14T09:18:11.324Z,32.83
2018-01-14T09:20:39.649Z,29.35
2018-01-14T09:23:07.969Z,31.40
2018-01-14T09:25:36.628Z,28.30
2018-01-14T09:28:04.968Z,30.52
2018-01-14T09:30:51.124Z,29.85
2018-01-14T09:33:19.432Z,28.53
2018-01-14T09:35:47.793Z,27.73
2018-01-14T09:38:16.198Z,31.55
2018-01-14T09:40:44.504Z,38.45
2018-01-14T09:43:12.820Z,26.52
2018-01-14T09:45:41.188Z,33.42
2018-01-14T09:48:09.505Z,29.35
2018-01-14T09:50:37.932Z,35.78
2018-01-14T09:53:06.732Z,32.57
2018-01-14T09:55:35.057Z,28.47
2018-01-14T09:58:03.480Z,41.60
2018-01-14T10:00:31.844Z,36.95
2018-01-14T10:03:00.172Z,40.60
2018-01-14T10:05:28.483Z,32.87
2018-01-14T10:07:56.808Z,33.13
2018-01-14T10:10:25.143Z,32.13
2018-01-14T10:12:53.487Z,37.30
2018-01-14T10:15:22.377Z,33.93
2018-01-14T10:17:50.679Z,30.80
2018-01-14T10:20:19.057Z,40.60
2018-01-14T10:22:47.444Z,39.03
2018-01-14T10:25:15.765Z,29.23
2018-01-14T10:27:44.113Z,28.70
2018-01-14T10:30:12.551Z,36.47
2018-01-14T10:32:40.876Z,34.60
2018-01-14T10:35:09.204Z,32.30
2018-01-14T10:37:37.725Z,32.73
2018-01-14T10:40:06.122Z,35.17
2018-01-14T10:42:34.476Z,34.00
2018-01-14T10:45:02.834Z,36.00
2018-01-14T10:47:31.153Z,37.00
2018-01-14T10:49:59.476Z,44.20
2018-01-14T10:52:27.874Z,36.47
2018-01-14T10:54:56.199Z,36.15
2018-01-14T10:57:24.569Z,33.05
2018-01-14T10:59:53.467Z,36.13
2018-01-14T11:02:21.774Z,36.70
2018-01-14T11:04:50.110Z,31.83
2018-01-14T11:07:18.508Z,36.83
2018-01-14T11:09:46.838Z,40.23
2018-01-14T11:12:15.169Z,30.90
2018-01-14T11:14:44.360Z,35.80
2018-01-14T11:17:12.769Z,38.00
2018-01-14T11:19:41.836Z,35.13
2018-01-14T11:22:11.075Z,35.67
2018-01-14T11:24:39.398Z,35.23
2018-01-14T11:27:07.725Z,36.33
2018-01-14T11:29:42.071Z,33.00
2018-01-14T11:32:11.263Z,34.10
2018-01-14T11:34:39.576Z,33.70
2018-01-14T11:37:07.924Z,37.90
2018-01-14T11:39:36.240Z,34.53
2018-01-14T11:42:05.457Z,37.63
2018-01-14T11:44:35.161Z,36.37
2018-01-14T11:47:03.492Z,37.30
2018-01-14T11:49:31.834Z,33.17
2018-01-14T11:52:00.236Z,32.70
2018-01-14T11:54:28.559Z,29.73
2018-01-14T11:56:56.902Z,34.40
2018-01-14T11:59:25.263Z,34.00
2018-01-14T12:01:53.648Z,33.47
2018-01-14T12:04:21.972Z,38.37
2018-01-14T12:06:50.583Z,36.40
2018-01-14T12:09:19.661Z,39.60
2018-01-14T12:11:47.968Z,37.13
2018-01-14T12:14:17.078Z,38.87
2018-01-14T12:16:45.414Z,41.77
2018-01-14T12:19:13.770Z,37.17
2018-01-14T12:21:42.136Z,36.13
2018-01-14T12:24:10.458Z,33.83
2018-01-14T12:26:38.796Z,30.87
2018-01-14T12:29:07.540Z,34.57
2018-01-14T12:31:36.652Z,30.57
2018-01-14T12:37:23.093Z,29.80
2018-01-14T12:39:51.435Z,39.20
2018-01-14T12:42:20.551Z,38.83
2018-01-14T12:44:48.869Z,37.70
2018-01-14T12:47:17.563Z,35.70
2018-01-14T12:49:45.886Z,39.07
2018-01-14T12:52:14.989Z,35.10
2018-01-14T12:54:44.084Z,36.10
2018-01-14T12:57:12.476Z,32.97
2018-01-14T12:59:40.781Z,40.80
2018-01-14T13:02:09.129Z,34.10
2018-01-14T13:04:37.489Z,32.57
2018-01-14T13:07:06.568Z,33.23
2018-01-14T13:09:35.968Z,33.13
2018-01-14T13:12:04.273Z,42.57
2018-01-14T13:14:33.360Z,41.60
2018-01-14T13:17:02.464Z,35.43
2018-01-14T13:19:30.783Z,38.40
2018-01-14T13:21:59.102Z,34.10
2018-01-14T13:24:28.229Z,44.17
2018-01-14T13:26:56.554Z,34.13
2018-01-14T13:29:24.882Z,36.30
2018-01-14T13:31:54.199Z,40.03
2018-01-14T13:34:22.520Z,32.00
2018-01-14T13:36:50.864Z,33.07
2018-01-14T13:39:19.220Z,35.30
2018-01-14T13:41:47.594Z,36.10
2018-01-14T13:44:15.920Z,35.73
2018-01-14T13:46:44.286Z,33.10
2018-01-14T13:49:12.613Z,35.70
2018-01-14T13:51:41.693Z,34.83
2018-01-14T13:54:10.377Z,37.10
2018-01-14T13:56:38.671Z,37.13
2018-01-14T13:59:07.911Z,32.97
2018-01-14T14:01:36.420Z,35.07
2018-01-14T14:04:04.762Z,34.73
2018-01-14T14:06:33.104Z,33.83
2018-01-14T14:09:01.441Z,36.37
2018-01-14T14:11:29.742Z,32.20
2018-01-14T14:13:58.078Z,43.77
2018-01-14T14:16:26.601Z,42.57
2018-01-14T14:18:54.892Z,33.40
2018-01-14T14:21:23.217Z,33.53
2018-01-14T14:23:51.545Z,33.93
2018-01-14T14:26:19.900Z,31.83
2018-01-14T14:28:48.225Z,37.30
2018-01-14T14:31:16.580Z,34.03
2018-01-14T14:33:44.926Z,34.93
2018-01-14T14:36:13.223Z,39.07
2018-01-14T14:38:42.100Z,33.80
2018-01-14T14:41:10.796Z,37.17
2018-01-14T14:43:39.126Z,36.53
2018-01-14T14:46:07.500Z,41.47
2018-01-14T14:48:36.646Z,38.97
2018-01-14T14:51:05.000Z,35.22
2018-01-14T14:53:33.385Z,32.33
2018-01-14T14:56:01.699Z,32.08
2018-01-14T14:58:30.011Z,37.30
2018-01-14T15:00:59.904Z,39.92
2018-01-14T15:03:28.244Z,33.55
2018-01-14T15:05:56.573Z,37.15
2018-01-14T15:08:25.776Z,37.42
2018-01-14T15:10:54.858Z,34.72
2018-01-14T15:13:23.155Z,34.53
2018-01-14T15:15:52.256Z,35.75
2018-01-14T15:18:20.569Z,32.75
2018-01-14T15:20:48.881Z,32.45
2018-01-14T15:23:17.539Z,34.72
2018-01-14T15:25:45.880Z,36.88
2018-01-14T15:28:14.212Z,41.70
2018-01-14T15:30:46.356Z,37.80
2018-01-14T15:33:14.932Z,30.42
2018-01-14T15:35:43.225Z,33.38
2018-01-14T15:38:11.590Z,33.45
2018-01-14T15:40:39.907Z,32.42
2018-01-14T15:43:08.211Z,31.33
2018-01-14T15:45:36.596Z,30.77
2018-01-14T15:48:05.672Z,42.42
2018-01-14T15:50:34.024Z,28.42
2018-01-14T15:53:02.368Z,33.60
2018-01-14T15:55:30.676Z,32.30
2018-01-14T15:57:58.990Z,33.97
2018-01-14T16:00:27.320Z,36.10
2018-01-14T16:02:55.641Z,29.27
2018-01-14T16:05:23.970Z,31.05
2018-01-14T16:07:52.461Z,32.45
2018-01-14T16:10:20.825Z,29.83
2018-01-14T16:12:49.154Z,27.20
2018-01-14T16:15:17.499Z,29.87
2018-01-14T16:17:45.806Z,30.25
2018-01-14T16:20:14.116Z,31.60
2018-01-14T16:22:43.240Z,29.90
2018-01-14T16:25:11.623Z,33.60
2018-01-14T16:27:39.986Z,31.80
2018-01-14T16:30:08.729Z,33.20
2018-01-14T16:32:37.048Z,32.08
2018-01-14T16:35:05.379Z,38.50
2018-01-14T16:37:33.739Z,27.83
2018-01-14T16:40:02.174Z,28.08
2018-01-14T16:42:30.578Z,32.67
2018-01-14T16:44:58.974Z,25.92
2018-01-14T16:47:27.307Z,35.47
2018-01-14T16:49:55.654Z,27.90
2018-01-14T16:52:24.529Z,34.90
2018-01-14T16:54:52.891Z,32.90
2018-01-14T16:57:21.213Z,36.33
2018-01-14T16:59:49.616Z,27.30
2018-01-14T17:02:17.970Z,28.77
2018-01-14T17:04:46.322Z,27.37
2018-01-14T17:07:14.659Z,31.50
2018-01-14T17:09:43.005Z,27.55
2018-01-14T17:12:11.346Z,26.90
2018-01-14T17:14:40.178Z,38.03
2018-01-14T17:17:08.511Z,28.95
2018-01-14T17:19:36.829Z,32.70
2018-01-14T17:22:05.192Z,24.45
2018-01-14T17:24:33.557Z,36.13
2018-01-14T17:27:01.901Z,32.92
2018-01-14T17:29:30.234Z,33.83
2018-01-14T17:31:58.578Z,25.12
2018-01-14T17:34:26.923Z,33.45
2018-01-14T17:36:56.097Z,29.33
2018-01-14T17:39:24.419Z,33.05
2018-01-14T17:41:52.779Z,27.65
2018-01-14T17:44:21.911Z,30.98
2018-01-14T17:46:50.262Z,27.05
2018-01-14T17:49:18.668Z,29.00
2018-01-14T17:51:47.045Z,27.02
2018-01-14T17:54:15.351Z,31.27
2018-01-14T17:56:43.736Z,34.13
2018-01-14T17:59:12.499Z,29.73
2018-01-14T18:01:43.569Z,31.98
2018-01-14T18:04:11.905Z,29.35
2018-01-14T18:06:40.294Z,26.83
2018-01-14T18:09:08.596Z,29.02
2018-01-14T18:11:36.916Z,31.08
2018-01-14T18:14:06.060Z,35.03
2018-01-14T18:16:34.386Z,28.90
2018-01-14T18:19:03.504Z,34.03
2018-01-14T18:21:32.030Z,28.58
2018-01-14T18:24:00.446Z,29.48
2018-01-14T18:26:29.554Z,26.90
2018-01-14T18:28:58.657Z,27.15
2018-01-14T18:31:26.966Z,36.38
2018-01-14T18:33:55.656Z,36.95
2018-01-14T18:36:24.093Z,32.10
2018-01-14T18:38:52.411Z,30.55
2018-01-14T18:41:20.771Z,26.60
2018-01-14T18:43:49.194Z,30.23
2018-01-14T18:46:17.512Z,32.33
2018-01-14T18:48:45.880Z,30.75
2018-01-14T18:51:15.024Z,29.35
2018-01-14T18:53:43.405Z,34.20
2018-01-14T18:56:11.763Z,33.53
2018-01-14T18:58:40.135Z,32.78
2018-01-14T19:01:08.508Z,28.02
2018-01-14T19:03:36.840Z,32.70
2018-01-14T19:06:05.755Z,34.75
2018-01-14T19:08:34.100Z,35.17
2018-01-14T19:11:02.462Z,35.55
2018-01-14T19:13:30.822Z,41.50
2018-01-14T19:15:59.143Z,41.83
2018-01-14T19:18:27.464Z,29.92
2018-01-14T19:20:56.580Z,33.03
2018-01-14T19:23:24.900Z,40.30
2018-01-14T19:25:53.227Z,30.23
2018-01-14T19:28:22.315Z,33.53
2018-01-14T19:30:50.654Z,31.65
2018-01-14T19:33:19.786Z,29.98
2018-01-14T19:35:48.941Z,33.38
2018-01-14T19:38:17.278Z,36.53
2018-01-14T19:40:46.417Z,33.10
2018-01-14T19:43:15.548Z,30.52
2018-01-14T19:45:44.638Z,34.42
2018-01-14T19:48:13.002Z,33.80
2018-01-14T19:50:41.753Z,34.63
2018-01-14T19:53:10.087Z,28.80
2018-01-14T19:55:39.226Z,27.50
2018-01-14T19:58:07.616Z,36.78
2018-01-14T20:00:35.933Z,31.98
2018-01-14T20:03:04.277Z,39.63
2018-01-14T20:05:33.284Z,36.88
2018-01-14T20:08:01.611Z,27.92
2018-01-14T20:10:29.934Z,33.03
2018-01-14T20:12:58.348Z,35.35
2018-01-14T20:15:27.469Z,33.08
2018-01-14T20:17:55.799Z,39.00
2018-01-14T20:20:24.160Z,36.85
2018-01-14T20:22:52.480Z,39.35
2018-01-14T20:25:20.831Z,34.22
2018-01-14T20:27:49.209Z,35.63
2018-01-14T20:30:17.510Z,38.85
2018-01-14T20:32:45.817Z,33.08
2018-01-14T20:35:14.372Z,38.33
2018-01-14T20:37:42.731Z,34.45
2018-01-14T20:40:11.076Z,34.42
2018-01-14T20:42:39.453Z,37.30
2018-01-14T20:45:07.817Z,35.95
2018-01-14T20:47:36.160Z,31.33
2018-01-14T20:50:04.541Z,40.30
2018-01-14T20:52:32.879Z,29.75
2018-01-14T20:55:01.198Z,36.67
2018-01-14T20:57:29.681Z,35.20
2018-01-14T20:59:58.077Z,40.00
2018-01-14T21:02:27.222Z,33.28
2018-01-14T21:04:55.600Z,32.08
2018-01-14T21:07:23.954Z,34.88
2018-01-14T21:09:52.289Z,36.38
2018-01-14T21:12:20.653Z,37.20
2018-01-14T21:14:48.983Z,38.20
2018-01-14T21:17:17.297Z,31.35
2018-01-14T21:19:45.741Z,41.22
2018-01-14T21:22:14.860Z,34.60
2018-01-14T21:24:43.196Z,35.55
2018-01-14T21:27:11.544Z,34.22
2018-01-14T21:29:39.905Z,35.45
2018-01-14T21:32:08.217Z,35.30
2018-01-14T21:34:36.552Z,33.40
2018-01-14T21:37:04.907Z,35.78
2018-01-14T21:39:34.045Z,62.38
2018-01-14T21:42:02.595Z,39.15
2018-01-14T21:44:30.923Z,35.85
2018-01-14T21:47:00.030Z,37.63
2018-01-14T21:49:28.424Z,39.30
2018-01-14T21:51:56.818Z,34.22
2018-01-14T21:54:25.905Z,38.85
2018-01-14T21:56:55.016Z,38.58
2018-01-14T21:59:23.341Z,33.75
2018-01-14T22:01:51.703Z,33.72
2018-01-14T22:04:20.545Z,36.78
2018-01-14T22:06:49.669Z,33.25
2018-01-14T22:09:18.016Z,39.30
2018-01-14T22:11:47.141Z,36.63
2018-01-14T22:14:15.458Z,37.92
2018-01-14T22:16:43.819Z,33.97
2018-01-14T22:19:12.179Z,38.05
2018-01-14T22:21:40.512Z,37.28
2018-01-14T22:24:08.848Z,32.90
2018-01-14T22:26:37.404Z,37.88
2018-01-14T22:29:06.513Z,36.05
2018-01-14T22:31:34.841Z,37.55
2018-01-14T22:34:03.186Z,34.40
2018-01-14T22:36:31.510Z,35.03
2018-01-14T22:38:59.814Z,32.75
2018-01-14T22:41:28.941Z,39.33
2018-01-14T22:43:57.307Z,37.05
2018-01-14T22:46:25.640Z,34.85
2018-01-14T22:48:54.062Z,37.60
2018-01-14T22:51:22.392Z,37.22
2018-01-14T22:53:50.704Z,37.42
2018-01-14T22:56:19.849Z,46.83
2018-01-14T22:58:48.224Z,37.97
2018-01-14T23:01:16.590Z,37.50
2018-01-14T23:03:44.937Z,40.30
2018-01-14T23:06:13.289Z,38.45
2018-01-14T23:08:41.622Z,37.38
2018-01-14T23:11:10.348Z,39.75
2018-01-14T23:13:38.669Z,33.95
2018-01-14T23:16:07.086Z,39.47
2018-01-14T23:18:35.470Z,34.70
2018-01-14T23:21:03.801Z,35.35
2018-01-14T23:23:32.864Z,33.50
2018-01-14T23:26:01.240Z,38.88
2018-01-14T23:28:29.574Z,37.25
2018-01-14T23:30:58.074Z,44.92
2018-01-14T23:33:26.479Z,38.50
2018-01-14T23:35:54.826Z,39.05
2018-01-14T23:38:23.221Z,31.83
2018-01-14T23:40:51.549Z,44.60
2018-01-14T23:43:19.886Z,33.42
2018-01-14T23:45:48.245Z,35.92
2018-01-14T23:48:17.135Z,36.63
2018-01-14T23:50:45.460Z,41.70
2018-01-14T23:53:13.822Z,43.75
2018-01-14T23:55:42.234Z,37.13
2018-01-14T23:58:10.578Z,39.85
